sensor_id;sensor_type;location;lat;lon;timestamp;pressure;altitude;pressure_sealevel;temperature;humidity
48800;BME280;34611;47.964;7.982;2023-06-22T00:05:52;96754.28;;;16.62;66.86
48800;BME280;34611;47.964;7.982;2023-06-22T00:12:53;96763.97;;;16.61;66.78
48800;BME280;34611;47.964;7.982;2023-06-22T00:19:53;96769.22;;;16.61;66.87
48800;BME280;34611;47.964;7.982;2023-06-22T00:26:55;96772.66;;;16.62;66.90
48800;BME280;34611;47.964;7.982;2023-06-22T00:33:55;96759.53;;;16.62;66.82
48800;BME280;34611;47.964;7.982;2023-06-22T00:40:55;96758.72;;;16.61;66.98
48800;BME280;34611;47.964;7.982;2023-06-22T00:47:56;96762.16;;;16.62;66.80
48800;BME280;34611;47.964;7.982;2023-06-22T00:54:58;96750.84;;;16.61;66.82
48800;BME280;34611;47.964;7.982;2023-06-22T01:02:01;96754.28;;;16.62;66.81
48800;BME280;34611;47.964;7.982;2023-06-22T01:09:04;96759.53;;;16.62;66.91
48800;BME280;34611;47.964;7.982;2023-06-22T01:30:46;96756.91;;;16.62;66.95
48800;BME280;34611;47.964;7.982;2023-06-22T01:37:49;96749.03;;;16.62;66.81
48800;BME280;34611;47.964;7.982;2023-06-22T01:44:54;96741.16;;;16.62;66.96
48800;BME280;34611;47.964;7.982;2023-06-22T01:51:55;96735.09;;;16.61;66.98
48800;BME280;34611;47.964;7.982;2023-06-22T02:06:04;96709.66;;;16.62;66.88
48800;BME280;34611;47.964;7.982;2023-06-22T02:13:06;96715.72;;;16.62;66.87
48800;BME280;34611;47.964;7.982;2023-06-22T02:20:07;96715.72;;;16.62;66.89
48800;BME280;34611;47.964;7.982;2023-06-22T02:27:11;96707.84;;;16.62;66.94
48800;BME280;34611;47.964;7.982;2023-06-22T02:34:12;96692.94;;;16.63;66.98
48800;BME280;34611;47.964;7.982;2023-06-22T02:41:18;96672.91;;;16.62;66.86
48800;BME280;34611;47.964;7.982;2023-06-22T02:48:18;96678.16;;;16.62;66.96
48800;BME280;34611;47.964;7.982;2023-06-22T02:55:19;96657.16;;;16.62;67.08
48800;BME280;34611;47.964;7.982;2023-06-22T03:02:26;96650.31;;;16.61;67.04
48800;BME280;34611;47.964;7.982;2023-06-22T03:09:28;96660.59;;;16.62;66.95
48800;BME280;34611;47.964;7.982;2023-06-22T03:16:29;96660.59;;;16.62;66.94
48800;BME280;34611;47.964;7.982;2023-06-22T03:23:30;96666.69;;;16.63;66.97
48800;BME280;34611;47.964;7.982;2023-06-22T03:30:30;96650.09;;;16.62;67.05
48800;BME280;34611;47.964;7.982;2023-06-22T03:37:31;96644.84;;;16.62;66.98
48800;BME280;34611;47.964;7.982;2023-06-22T03:44:31;96644.84;;;16.62;67.06
48800;BME280;34611;47.964;7.982;2023-06-22T03:51:32;96648.31;;;16.63;66.94
48800;BME280;34611;47.964;7.982;2023-06-22T03:58:32;96636.81;;;16.64;66.96
48800;BME280;34611;47.964;7.982;2023-06-22T04:05:33;96634.34;;;16.62;67.11
48800;BME280;34611;47.964;7.982;2023-06-22T04:12:33;96637.81;;;16.63;67.02
48800;BME280;34611;47.964;7.982;2023-06-22T04:19:34;96632.56;;;16.63;66.94
48800;BME280;34611;47.964;7.982;2023-06-22T04:26:34;96629.94;;;16.63;67.00
48800;BME280;34611;47.964;7.982;2023-06-22T04:33:36;96637.81;;;16.63;66.91
48800;BME280;34611;47.964;7.982;2023-06-22T04:40:40;96634.34;;;16.62;66.98
48800;BME280;34611;47.964;7.982;2023-06-22T04:47:40;96647.31;;;16.64;66.92
48800;BME280;34611;47.964;7.982;2023-06-22T04:54:41;96643.06;;;16.63;67.03
48800;BME280;34611;47.964;7.982;2023-06-22T05:01:47;96647.31;;;16.64;66.98
48800;BME280;34611;47.964;7.982;2023-06-22T05:08:47;96634.34;;;16.62;66.95
48800;BME280;34611;47.964;7.982;2023-06-22T05:15:48;96627.31;;;16.63;67.03
48800;BME280;34611;47.964;7.982;2023-06-22T05:22:48;96636.00;;;16.63;67.06
48800;BME280;34611;47.964;7.982;2023-06-22T05:29:48;96625.50;;;16.63;66.96
48800;BME280;34611;47.964;7.982;2023-06-22T05:36:48;96622.88;;;16.63;66.99
48800;BME280;34611;47.964;7.982;2023-06-22T05:43:49;96629.75;;;16.64;67.08
48800;BME280;34611;47.964;7.982;2023-06-22T05:50:49;96624.69;;;16.63;66.98
48800;BME280;34611;47.964;7.982;2023-06-22T05:57:49;96620.25;;;16.63;66.99
48800;BME280;34611;47.964;7.982;2023-06-22T06:04:50;96593.22;;;16.63;67.06
48800;BME280;34611;47.964;7.982;2023-06-22T06:11:52;96597.44;;;16.64;67.02
48800;BME280;34611;47.964;7.982;2023-06-22T06:18:52;96632.38;;;16.64;66.92
48800;BME280;34611;47.964;7.982;2023-06-22T06:25:54;96618.44;;;16.64;66.99
48800;BME280;34611;47.964;7.982;2023-06-22T06:32:55;96645.50;;;16.64;67.07
48800;BME280;34611;47.964;7.982;2023-06-22T06:39:55;96669.13;;;16.64;67.04
48800;BME280;34611;47.964;7.982;2023-06-22T06:46:55;96700.63;;;16.64;67.05
48800;BME280;34611;47.964;7.982;2023-06-22T06:53:56;96738.19;;;16.65;66.95
48800;BME280;34611;47.964;7.982;2023-06-22T07:00:56;96780.19;;;16.65;66.91
48800;BME280;34611;47.964;7.982;2023-06-22T07:07:56;96793.31;;;16.65;67.11
48800;BME280;34611;47.964;7.982;2023-06-22T07:15:03;96777.56;;;16.65;67.07
48800;BME280;34611;47.964;7.982;2023-06-22T07:22:04;96765.41;;;16.64;67.12
48800;BME280;34611;47.964;7.982;2023-06-22T07:29:04;96774.09;;;16.64;67.07
48800;BME280;34611;47.964;7.982;2023-06-22T07:36:04;96764.44;;;16.65;67.13
48800;BME280;34611;47.964;7.982;2023-06-22T07:43:07;96773.28;;;16.64;67.07
48800;BME280;34611;47.964;7.982;2023-06-22T07:50:08;96761.97;;;16.63;67.16
48800;BME280;34611;47.964;7.982;2023-06-22T07:57:08;96722.63;;;16.63;66.97
48800;BME280;34611;47.964;7.982;2023-06-22T08:04:08;96718.19;;;16.64;67.06
48800;BME280;34611;47.964;7.982;2023-06-22T08:11:09;96696.22;;;16.65;67.14
48800;BME280;34611;47.964;7.982;2023-06-22T08:18:09;96668.31;;;16.64;67.23
48800;BME280;34611;47.964;7.982;2023-06-22T08:25:09;96696.22;;;16.65;67.06
48800;BME280;34611;47.964;7.982;2023-06-22T08:32:10;96663.88;;;16.64;67.10
48800;BME280;34611;47.964;7.982;2023-06-22T08:39:10;96644.69;;;16.64;67.02
48800;BME280;34611;47.964;7.982;2023-06-22T08:46:11;96653.38;;;16.64;67.03
48800;BME280;34611;47.964;7.982;2023-06-22T08:53:11;96637.63;;;16.64;66.94
48800;BME280;34611;47.964;7.982;2023-06-22T09:00:11;96632.38;;;16.64;67.05
48800;BME280;34611;47.964;7.982;2023-06-22T09:07:24;96615.66;;;16.65;67.12
48800;BME280;34611;47.964;7.982;2023-06-22T09:14:24;96606.13;;;16.64;67.19
48800;BME280;34611;47.964;7.982;2023-06-22T09:21:25;96603.34;;;16.66;67.06
48800;BME280;34611;47.964;7.982;2023-06-22T09:28:25;96586.78;;;16.65;67.13
48800;BME280;34611;47.964;7.982;2023-06-22T09:35:25;96572.84;;;16.65;67.08
48800;BME280;34611;47.964;7.982;2023-06-22T09:42:26;96576.28;;;16.65;67.05
48800;BME280;34611;47.964;7.982;2023-06-22T09:49:26;96571.03;;;16.65;67.04
48800;BME280;34611;47.964;7.982;2023-06-22T09:56:26;96571.84;;;16.66;67.14
48800;BME280;34611;47.964;7.982;2023-06-22T10:03:28;96571.03;;;16.65;67.05
48800;BME280;34611;47.964;7.982;2023-06-22T10:10:28;96559.75;;;16.65;67.11
48800;BME280;34611;47.964;7.982;2023-06-22T10:17:28;96537.91;;;16.64;67.08
48800;BME280;34611;47.964;7.982;2023-06-22T10:24:29;96523.81;;;16.65;67.15
48800;BME280;34611;47.964;7.982;2023-06-22T10:31:29;96559.53;;;16.66;67.17
48800;BME280;34611;47.964;7.982;2023-06-22T10:38:29;96547.25;;;16.67;67.10
48800;BME280;34611;47.964;7.982;2023-06-22T10:45:29;96556.09;;;16.66;67.18
48800;BME280;34611;47.964;7.982;2023-06-22T10:52:30;96583.16;;;16.66;67.10
48800;BME280;34611;47.964;7.982;2023-06-22T10:59:30;96585.78;;;16.66;67.09
48800;BME280;34611;47.964;7.982;2023-06-22T11:06:30;96636.50;;;16.67;67.12
48800;BME280;34611;47.964;7.982;2023-06-22T11:13:30;96663.53;;;16.67;67.06
48800;BME280;34611;47.964;7.982;2023-06-22T11:20:31;96655.84;;;16.66;67.20
48800;BME280;34611;47.964;7.982;2023-06-22T11:27:33;96654.88;;;16.67;67.12
48800;BME280;34611;47.964;7.982;2023-06-22T11:34:33;96640.09;;;16.66;67.15
48800;BME280;34611;47.964;7.982;2023-06-22T11:41:34;96660.13;;;16.67;67.17
48800;BME280;34611;47.964;7.982;2023-06-22T11:48:34;96646.16;;;16.66;67.12
48800;BME280;34611;47.964;7.982;2023-06-22T11:55:34;96633.88;;;16.67;67.08
48800;BME280;34611;47.964;7.982;2023-06-22T12:02:35;96628.63;;;16.67;67.11
48800;BME280;34611;47.964;7.982;2023-06-22T12:09:35;96608.59;;;16.66;67.11
48800;BME280;34611;47.964;7.982;2023-06-22T12:16:35;96628.63;;;16.67;67.11
48800;BME280;34611;47.964;7.982;2023-06-22T12:23:35;96642.56;;;16.67;67.20
48800;BME280;34611;47.964;7.982;2023-06-22T12:30:36;96647.00;;;16.67;67.16
48800;BME280;34611;47.964;7.982;2023-06-22T12:37:36;96668.78;;;16.67;67.19
48800;BME280;34611;47.964;7.982;2023-06-22T12:44:37;96702.75;;;16.69;67.21
48800;BME280;34611;47.964;7.982;2023-06-22T12:51:41;96705.38;;;16.69;67.16
48800;BME280;34611;47.964;7.982;2023-06-22T12:58:42;96680.09;;;16.68;67.28
48800;BME280;34611;47.964;7.982;2023-06-22T13:05:42;96689.63;;;16.69;67.25
48800;BME280;34611;47.964;7.982;2023-06-22T13:12:45;96688.78;;;16.68;67.18
48800;BME280;34611;47.964;7.982;2023-06-22T13:19:45;96670.63;;;16.67;67.23
48800;BME280;34611;47.964;7.982;2023-06-22T13:26:45;96662.53;;;16.68;67.25
48800;BME280;34611;47.964;7.982;2023-06-22T13:33:45;96671.25;;;16.69;67.10
48800;BME280;34611;47.964;7.982;2023-06-22T13:40:48;96668.63;;;16.69;67.12
48800;BME280;34611;47.964;7.982;2023-06-22T13:47:48;96687.00;;;16.69;67.24
48800;BME280;34611;47.964;7.982;2023-06-22T13:54:48;96719.31;;;16.69;67.31
48800;BME280;34611;47.964;7.982;2023-06-22T14:01:49;96681.75;;;16.69;67.26
48800;BME280;34611;47.964;7.982;2023-06-22T14:08:49;96647.63;;;16.69;67.17
48800;BME280;34611;47.964;7.982;2023-06-22T14:15:51;96640.56;;;16.69;67.10
48800;BME280;34611;47.964;7.982;2023-06-22T14:22:52;96644.81;;;16.70;67.13
48800;BME280;34611;47.964;7.982;2023-06-22T14:29:52;96636.13;;;16.70;67.21
48800;BME280;34611;47.964;7.982;2023-06-22T14:36:53;96629.25;;;16.69;67.26
48800;BME280;34611;47.964;7.982;2023-06-22T14:43:53;96622.03;;;16.71;67.30
48800;BME280;34611;47.964;7.982;2023-06-22T14:50:53;96627.44;;;16.69;67.19
48800;BME280;34611;47.964;7.982;2023-06-22T14:57:54;96631.69;;;16.70;67.18
48800;BME280;34611;47.964;7.982;2023-06-22T15:04:54;96634.31;;;16.70;67.18
48800;BME280;34611;47.964;7.982;2023-06-22T15:11:54;96619.41;;;16.71;67.32
48800;BME280;34611;47.964;7.982;2023-06-22T15:18:55;96635.16;;;16.71;67.24
48800;BME280;34611;47.964;7.982;2023-06-22T15:25:55;96611.53;;;16.71;67.21
48800;BME280;34611;47.964;7.982;2023-06-22T15:32:56;96611.53;;;16.71;67.20
48800;BME280;34611;47.964;7.982;2023-06-22T15:39:56;96612.34;;;16.71;67.26
48800;BME280;34611;47.964;7.982;2023-06-22T15:46:56;96592.31;;;16.70;67.19
48800;BME280;34611;47.964;7.982;2023-06-22T15:53:57;96589.69;;;16.70;67.30
48800;BME280;34611;47.964;7.982;2023-06-22T16:00:57;96588.72;;;16.71;67.22
48800;BME280;34611;47.964;7.982;2023-06-22T16:07:57;96604.59;;;16.78;67.30
48800;BME280;34611;47.964;7.982;2023-06-22T16:14:57;96621.69;;;16.74;67.32
48800;BME280;34611;47.964;7.982;2023-06-22T16:21:58;96617.44;;;16.73;67.38
48800;BME280;34611;47.964;7.982;2023-06-22T16:28:58;96610.16;;;16.75;67.34
48800;BME280;34611;47.964;7.982;2023-06-22T16:35:58;96550.16;;;16.72;67.34
48800;BME280;34611;47.964;7.982;2023-06-22T16:43:00;96619.06;;;16.74;67.32
48800;BME280;34611;47.964;7.982;2023-06-22T16:50:00;96614.81;;;16.73;67.31
48800;BME280;34611;47.964;7.982;2023-06-22T16:57:02;96580.69;;;16.73;67.31
48800;BME280;34611;47.964;7.982;2023-06-22T17:04:08;96563.94;;;16.74;67.29
48800;BME280;34611;47.964;7.982;2023-06-22T17:11:09;96608.56;;;16.74;67.31
48800;BME280;34611;47.964;7.982;2023-06-22T17:18:09;96602.78;;;16.78;67.35
48800;BME280;34611;47.964;7.982;2023-06-22T17:25:09;96644.94;;;16.77;67.36
48800;BME280;34611;47.964;7.982;2023-06-22T17:32:10;96622.31;;;16.76;67.56
48800;BME280;34611;47.964;7.982;2023-06-22T17:39:11;96657.25;;;16.76;67.49
48800;BME280;34611;47.964;7.982;2023-06-22T17:46:11;96640.69;;;16.76;67.51
48800;BME280;34611;47.964;7.982;2023-06-22T17:53:13;96657.75;;;16.80;67.51
48800;BME280;34611;47.964;7.982;2023-06-22T18:00:13;96742.72;;;16.79;67.38
48800;BME280;34611;47.964;7.982;2023-06-22T18:07:13;96833.63;;;16.80;67.44
48800;BME280;34611;47.964;7.982;2023-06-22T18:14:14;96846.09;;;16.78;67.52
48800;BME280;34611;47.964;7.982;2023-06-22T18:21:15;96811.16;;;16.77;67.45
48800;BME280;34611;47.964;7.982;2023-06-22T18:28:15;96808.53;;;16.77;67.45
48800;BME280;34611;47.964;7.982;2023-06-22T18:35:17;96797.19;;;16.77;67.53
48800;BME280;34611;47.964;7.982;2023-06-22T18:42:18;96815.56;;;16.77;67.40
48800;BME280;34611;47.964;7.982;2023-06-22T18:49:21;96814.75;;;16.76;67.40
48800;BME280;34611;47.964;7.982;2023-06-22T18:56:22;96825.25;;;16.76;67.46
48800;BME280;34611;47.964;7.982;2023-06-22T19:03:28;96834.94;;;16.76;67.55
48800;BME280;34611;47.964;7.982;2023-06-22T19:17:36;96863.00;;;16.75;67.50
48800;BME280;34611;47.964;7.982;2023-06-22T19:24:47;96877.75;;;16.76;67.46
48800;BME280;34611;47.964;7.982;2023-06-22T19:31:49;96884.00;;;16.75;67.54
48800;BME280;34611;47.964;7.982;2023-06-22T19:38:50;96882.19;;;16.76;67.54
48800;BME280;34611;47.964;7.982;2023-06-22T19:45:50;96873.50;;;16.75;67.42
48800;BME280;34611;47.964;7.982;2023-06-22T19:52:50;96876.94;;;16.76;67.48
48800;BME280;34611;47.964;7.982;2023-06-22T19:59:53;96877.91;;;16.75;67.43
48800;BME280;34611;47.964;7.982;2023-06-22T20:07:04;96903.19;;;16.76;67.54
48800;BME280;34611;47.964;7.982;2023-06-22T20:14:04;96879.56;;;16.76;67.44
48800;BME280;34611;47.964;7.982;2023-06-22T20:21:09;96877.91;;;16.75;67.49
48800;BME280;34611;47.964;7.982;2023-06-22T20:28:10;96864.78;;;16.75;67.54
48800;BME280;34611;47.964;7.982;2023-06-22T20:35:11;96855.94;;;16.76;67.43
48800;BME280;34611;47.964;7.982;2023-06-22T20:42:11;96880.53;;;16.75;67.47
48800;BME280;34611;47.964;7.982;2023-06-22T20:49:12;96880.53;;;16.75;67.35
48800;BME280;34611;47.964;7.982;2023-06-22T20:56:12;96876.94;;;16.76;67.58
48800;BME280;34611;47.964;7.982;2023-06-22T21:03:12;96890.22;;;16.74;67.47
48800;BME280;34611;47.964;7.982;2023-06-22T21:10:12;96901.53;;;16.75;67.39
48800;BME280;34611;47.964;7.982;2023-06-22T21:17:13;96910.25;;;16.75;67.56
48800;BME280;34611;47.964;7.982;2023-06-22T21:24:13;96918.13;;;16.75;67.46
48800;BME280;34611;47.964;7.982;2023-06-22T21:31:13;96921.56;;;16.76;67.58
48800;BME280;34611;47.964;7.982;2023-06-22T21:38:13;96917.28;;;16.75;67.58
48800;BME280;34611;47.964;7.982;2023-06-22T21:45:14;96926.81;;;16.76;67.33
48800;BME280;34611;47.964;7.982;2023-06-22T21:52:14;96924.19;;;16.76;67.53
48800;BME280;34611;47.964;7.982;2023-06-22T21:59:14;96930.41;;;16.75;67.56
48800;BME280;34611;47.964;7.982;2023-06-22T22:06:14;96933.88;;;16.75;67.48
48800;BME280;34611;47.964;7.982;2023-06-22T22:13:15;96939.94;;;16.76;67.46
48800;BME280;34611;47.964;7.982;2023-06-22T22:20:15;96932.06;;;16.76;67.54
48800;BME280;34611;47.964;7.982;2023-06-22T22:27:16;96933.88;;;16.75;67.47
48800;BME280;34611;47.964;7.982;2023-06-22T22:34:16;96939.13;;;16.75;67.55
48800;BME280;34611;47.964;7.982;2023-06-22T22:41:17;96944.38;;;16.75;67.57
48800;BME280;34611;47.964;7.982;2023-06-22T22:48:20;96950.44;;;16.76;67.56
48800;BME280;34611;47.964;7.982;2023-06-22T22:55:20;96945.19;;;16.76;67.55
48800;BME280;34611;47.964;7.982;2023-06-22T23:02:22;96945.19;;;16.76;67.54
48800;BME280;34611;47.964;7.982;2023-06-22T23:09:22;96960.13;;;16.75;67.62
48800;BME280;34611;47.964;7.982;2023-06-22T23:16:23;96965.41;;;16.75;67.61
48800;BME280;34611;47.964;7.982;2023-06-22T23:23:25;96955.69;;;16.76;67.57
48800;BME280;34611;47.964;7.982;2023-06-22T23:30:25;96970.63;;;16.75;67.50
48800;BME280;34611;47.964;7.982;2023-06-22T23:37:26;96992.47;;;16.76;67.38
48800;BME280;34611;47.964;7.982;2023-06-22T23:44:27;97005.59;;;16.76;67.51
48800;BME280;34611;47.964;7.982;2023-06-22T23:51:27;97019.53;;;16.76;67.54
48800;BME280;34611;47.964;7.982;2023-06-22T23:58:27;97034.47;;;16.76;67.57
